Time;durP1;ratioP1;P1;durP2;ratioP2;P2;SDS_P1;SDS_P2;PMS_P1;PMS_P2;Temp;Humidity;BMP_temperature;BMP_pressure;BME280_temperature;BME280_humidity;BME280_pressure;Samples;Min_cycle;Max_cycle;Signal;HPM_P1;HPM_P2
2023/01/31 00:01:35;;;;;;;;;17.00;14.00;;;;;7.41;64.96;102172.81;6270830;22;45437;-74
2023/01/31 00:04:03;;;;;;;;;22.00;16.75;;;;;7.20;65.09;102137.03;6270680;22;46308;-77
2023/01/31 00:06:34;;;;;;;;;13.50;11.75;;;;;7.32;65.15;102160.09;6243630;22;47052;-75
2023/01/31 00:09:01;;;;;;;;;18.25;15.00;;;;;7.30;65.13;102161.03;6271028;22;45764;-76
2023/01/31 00:11:28;;;;;;;;;15.50;13.75;;;;;7.32;65.14;102173.13;6271946;22;45518;-74
2023/01/31 00:13:59;;;;;;;;;12.25;10.00;;;;;7.31;65.28;102166.22;6270654;22;47318;-76
2023/01/31 00:16:33;;;;;;;;;18.75;15.75;;;;;7.27;65.34;102158.53;6271240;22;45594;-76
2023/01/31 00:19:01;;;;;;;;;20.00;14.00;;;;;7.26;65.08;102157.69;6270863;22;45448;-76
2023/01/31 00:21:33;;;;;;;;;18.00;14.25;;;;;7.32;65.27;102167.91;6271671;22;45488;-78
2023/01/31 00:23:59;;;;;;;;;18.75;14.50;;;;;7.27;65.38;102150.72;6270441;22;46493;-76
2023/01/31 00:26:33;;;;;;;;;13.75;12.25;;;;;7.18;65.43;102138.81;6271471;22;46422;-77
2023/01/31 00:29:02;;;;;;;;;13.00;12.25;;;;;7.25;65.62;102148.16;6271212;22;45746;-75
2023/01/31 00:31:30;;;;;;;;;14.00;14.00;;;;;7.20;65.51;102147.44;6271336;22;45460;-77
2023/01/31 00:33:57;;;;;;;;;23.00;18.75;;;;;7.20;65.60;102154.41;6271404;22;45491;-77
2023/01/31 00:36:41;;;;;;;;;15.00;13.50;;;;;7.13;64.98;102151.16;6270703;22;47087;-76
2023/01/31 00:39:07;;;;;;;;;20.75;17.50;;;;;7.14;65.60;102160.69;6244138;22;45786;-74
2023/01/31 00:41:34;;;;;;;;;30.25;24.50;;;;;7.13;65.48;102161.56;6271091;22;45556;-77
2023/01/31 00:43:59;;;;;;;;;63.75;49.50;;;;;7.13;65.55;102161.56;6271119;22;46538;-74
2023/01/31 00:46:26;;;;;;;;;84.50;60.75;;;;;7.12;65.74;102163.34;6270403;22;47036;-74
2023/01/31 00:48:55;;;;;;;;;81.25;63.00;;;;;7.06;66.03;102158.34;6271487;22;45425;-77
2023/01/31 00:51:21;;;;;;;;;66.75;50.75;;;;;7.03;65.92;102161.03;6271742;22;45476;-72
2023/01/31 00:53:48;;;;;;;;;22.75;19.75;;;;;7.00;65.92;102160.28;6270823;22;46425;-77
2023/01/31 00:56:19;;;;;;;;;40.75;29.50;;;;;6.99;66.09;102161.16;6271345;22;45515;-77
2023/01/31 00:58:44;;;;;;;;;26.75;22.50;;;;;6.87;65.78;102136.34;6271356;22;45618;-75
2023/01/31 01:01:38;;;;;;;;;19.00;16.00;;;;;6.95;65.97;102152.59;6270905;22;45824;-74
2023/01/31 01:07:28;;;;;;;;;16.00;12.00;;;;;6.87;66.08;102123.31;6270771;22;46062;-77
2023/01/31 01:09:55;;;;;;;;;15.75;13.25;;;;;6.95;66.30;102136.13;6270663;22;45497;-79
2023/01/31 01:12:20;;;;;;;;;14.75;14.75;;;;;6.92;66.28;102126.63;6271093;22;45653;-76
2023/01/31 01:14:48;;;;;;;;;15.75;12.25;;;;;6.87;66.06;102120.72;6271658;22;46160;-78
2023/01/31 01:17:13;;;;;;;;;8.50;8.00;;;;;6.94;66.36;102131.81;6271742;22;46188;-75
2023/01/31 01:19:38;;;;;;;;;13.00;13.00;;;;;6.91;66.12;102126.69;6273039;22;45544;-76
2023/01/31 01:22:25;;;;;;;;;6.50;6.50;;;;;6.78;66.16;102094.97;6272226;22;45817;-77
2023/01/31 01:24:49;;;;;;;;;10.75;10.25;;;;;6.79;66.38;102109.69;6248865;22;46556;-76
2023/01/31 01:27:15;;;;;;;;;12.50;10.25;;;;;6.90;66.27;102130.19;6271536;22;46925;-77
2023/01/31 01:29:41;;;;;;;;;9.00;9.00;;;;;6.87;66.50;102132.88;6272491;22;45467;-76
2023/01/31 01:32:06;;;;;;;;;12.50;10.25;;;;;6.83;66.42;102134.75;6272151;22;45653;-76
2023/01/31 01:34:34;;;;;;;;;10.25;8.25;;;;;6.75;66.77;102137.56;6271186;22;46365;-76
2023/01/31 01:36:59;;;;;;;;;11.50;9.75;;;;;6.72;66.58;102150.69;6271195;22;47063;-78
2023/01/31 01:39:28;;;;;;;;;13.75;11.50;;;;;6.59;66.69;102136.31;6272208;22;45452;-77
2023/01/31 01:41:55;;;;;;;;;10.50;8.50;;;;;6.53;67.10;102131.31;6271764;22;45703;-77
2023/01/31 01:44:48;;;;;;;;;12.50;9.75;;;;;6.54;67.36;102138.22;6271404;22;46835;-74
2023/01/31 01:47:32;;;;;;;;;14.00;12.50;;;;;6.51;67.34;102142.69;6271957;22;46012;-78
2023/01/31 01:50:26;;;;;;;;;13.50;13.00;;;;;6.47;67.44;102139.31;6244321;22;45819;-77
2023/01/31 01:53:01;;;;;;;;;15.25;12.00;;;;;6.50;67.66;102143.56;6271557;22;45469;-77
2023/01/31 01:55:44;;;;;;;;;12.25;12.00;;;;;6.50;67.78;102133.16;6271498;22;46388;-78
2023/01/31 01:58:13;;;;;;;;;19.50;13.50;;;;;6.51;67.69;102129.66;6272057;22;45604;-76
2023/01/31 02:00:38;;;;;;;;;17.25;11.00;;;;;6.48;67.39;102116.75;6272282;22;45586;-77
2023/01/31 02:03:06;;;;;;;;;15.75;12.00;;;;;6.57;67.26;102132.09;6271617;22;45755;-77
2023/01/31 02:05:45;;;;;;;;;10.75;10.50;;;;;6.57;67.53;102130.34;6271960;22;45633;-77
2023/01/31 02:08:14;;;;;;;;;9.50;8.00;;;;;6.60;67.71;102130.22;6271560;22;45503;-76
2023/01/31 02:10:47;;;;;;;;;9.00;9.00;;;;;6.58;67.82;102113.81;6272092;22;45601;-76
2023/01/31 02:13:14;;;;;;;;;11.50;7.50;;;;;6.60;67.61;102116.34;6272335;22;45536;-75
2023/01/31 02:15:40;;;;;;;;;9.25;8.00;;;;;6.62;67.13;102124.97;6272180;22;46223;-76
2023/01/31 02:18:08;;;;;;;;;10.00;8.75;;;;;6.62;67.90;102125.84;6272027;22;46206;-75
2023/01/31 02:21:13;;;;;;;;;8.00;8.00;;;;;6.61;67.54;102124.13;6271510;22;45782;-76
2023/01/31 02:24:12;;;;;;;;;12.25;9.00;;;;;6.63;67.66;102118.88;6271458;22;45493;-75
2023/01/31 02:26:55;;;;;;;;;10.00;9.75;;;;;6.63;67.38;102117.13;6270694;22;46754;-77
2023/01/31 02:29:38;;;;;;;;;13.00;11.00;;;;;6.65;67.63;102117.06;6272044;22;46060;-75
2023/01/31 02:35:33;;;;;;;;;8.75;8.00;;;;;6.66;67.53;102126.59;6270134;22;45571;-78
2023/01/31 02:38:37;;;;;;;;;9.00;8.75;;;;;6.65;67.88;102130.09;6271886;22;46344;-77
2023/01/31 02:41:19;;;;;;;;;8.75;8.00;;;;;6.61;68.03;102126.72;6243779;22;47471;-77
2023/01/31 02:46:58;;;;;;;;;11.00;9.00;;;;;6.32;68.12;102095.50;6271724;22;45396;-74
2023/01/31 02:49:34;;;;;;;;;9.00;9.00;;;;;6.52;68.17;102140.03;6271156;22;46578;-75
2023/01/31 02:52:27;;;;;;;;;10.00;8.75;;;;;6.52;68.20;102128.75;6271878;22;46021;-75
2023/01/31 02:57:51;;;;;;;;;13.00;9.00;;;;;6.49;68.27;102114.06;6272288;22;45515;-77
2023/01/31 03:00:19;;;;;;;;;11.50;9.00;;;;;6.52;68.15;102118.34;6272202;22;46553;-75
2023/01/31 03:02:45;;;;;;;;;9.50;8.00;;;;;6.49;68.23;102126.25;6271873;22;45589;-77
2023/01/31 03:05:14;;;;;;;;;12.25;9.00;;;;;6.47;68.37;102115.91;6271950;22;45548;-75
2023/01/31 03:07:43;;;;;;;;;9.25;9.00;;;;;6.44;68.44;102117.72;6272146;22;45683;-77
2023/01/31 03:10:39;;;;;;;;;9.00;9.00;;;;;6.47;68.68;102118.50;6271920;22;45500;-77
2023/01/31 03:13:04;;;;;;;;;11.25;8.75;;;;;6.46;68.59;102124.59;6271948;22;46025;-77
2023/01/31 03:22:15;;;;;;;;;14.00;11.00;;;;;6.24;69.18;102107.91;6271512;22;45543;-77
2023/01/31 03:24:43;;;;;;;;;13.50;9.50;;;;;6.29;69.32;102132.03;6272159;22;45424;-76
2023/01/31 03:27:10;;;;;;;;;9.25;8.25;;;;;6.27;69.08;102134.66;6271905;22;45825;-78
2023/01/31 03:29:38;;;;;;;;;9.00;9.00;;;;;6.24;69.03;102136.53;6271615;22;45809;-78
2023/01/31 03:32:24;;;;;;;;;9.00;8.25;;;;;6.18;69.18;102132.34;6271724;22;46322;-75
2023/01/31 03:38:30;;;;;;;;;11.00;8.25;;;;;6.17;69.52;102137.59;6267971;22;46640;-76
2023/01/31 03:41:04;;;;;;;;;12.25;9.00;;;;;6.16;69.21;102143.69;6272198;22;45898;-76
2023/01/31 03:43:38;;;;;;;;;11.00;8.00;;;;;6.13;69.20;102135.97;6272072;22;45541;-75
2023/01/31 03:46:15;;;;;;;;;13.00;9.75;;;;;6.15;69.41;102129.84;6272156;22;46237;-77
2023/01/31 03:48:45;;;;;;;;;13.00;9.00;;;;;6.16;69.41;102131.53;6272019;22;45590;-78
2023/01/31 03:51:18;;;;;;;;;9.25;8.25;;;;;6.15;69.70;102139.41;6272149;22;45705;-77
2023/01/31 03:53:53;;;;;;;;;18.00;12.75;;;;;6.13;69.50;102122.97;6271266;22;47538;-76
2023/01/31 03:56:47;;;;;;;;;11.50;10.75;;;;;6.15;69.24;102134.19;6272405;22;45849;-76
2023/01/31 03:59:21;;;;;;;;;13.50;11.75;;;;;6.03;69.50;102119.78;6147304;22;45624;-77
2023/01/31 04:01:50;;;;;;;;;9.00;7.50;;;;;6.12;69.71;102140.31;6123162;23;45775;-76
2023/01/31 04:04:20;;;;;;;;;13.50;9.50;;;;;6.08;69.53;102135.25;6146819;23;45646;-76
2023/01/31 04:06:45;;;;;;;;;11.50;9.00;;;;;6.00;69.65;102127.66;6121347;23;48073;-76
2023/01/31 04:09:10;;;;;;;;;8.50;6.50;;;;;6.03;69.71;102139.72;6146866;23;45833;-75
2023/01/31 04:11:39;;;;;;;;;13.75;9.00;;;;;5.99;69.38;102125.09;6146577;23;45535;-77
2023/01/31 04:14:05;;;;;;;;;9.25;6.75;;;;;6.04;69.60;102138.84;6147537;23;45634;-76
2023/01/31 04:16:30;;;;;;;;;11.50;8.25;;;;;6.04;69.49;102128.44;6146442;23;46066;-73
2023/01/31 04:18:56;;;;;;;;;12.00;9.50;;;;;6.03;69.42;102129.31;6146709;23;45627;-73
2023/01/31 04:21:21;;;;;;;;;12.50;11.75;;;;;6.01;69.28;102137.16;6147319;23;45634;-75
2023/01/31 04:23:47;;;;;;;;;14.50;11.00;;;;;5.93;69.54;102131.34;6147037;23;46595;-77
2023/01/31 04:26:13;;;;;;;;;3.25;2.00;;;;;5.85;69.68;102112.44;6146483;23;45646;-78
2023/01/31 04:28:39;;;;;;;;;10.25;8.75;;;;;5.90;69.53;102126.19;6147336;23;45646;-76
2023/01/31 04:31:04;;;;;;;;;8.75;8.50;;;;;5.93;70.10;102141.72;6122288;23;45450;-77
2023/01/31 04:33:30;;;;;;;;;8.00;6.25;;;;;5.93;69.78;102146.09;6146635;23;46594;-78
2023/01/31 04:39:17;;;;;;;;;9.50;7.25;;;;;5.80;70.03;102137.72;6265400;22;45702;-78
2023/01/31 04:41:42;;;;;;;;;7.75;6.25;;;;;5.78;69.89;102132.53;6270877;22;45824;-77
2023/01/31 04:44:08;;;;;;;;;8.75;7.00;;;;;5.80;70.04;102148.13;6271781;22;46107;-77
2023/01/31 04:46:33;;;;;;;;;5.00;5.00;;;;;5.76;69.84;102142.16;6271349;22;45598;-74
2023/01/31 04:48:59;;;;;;;;;8.00;6.00;;;;;5.68;69.88;102125.88;6271019;22;45711;-75
2023/01/31 04:54:45;;;;;;;;;8.75;7.00;;;;;5.63;70.11;102138.16;6271247;22;46003;-75
2023/01/31 04:57:11;;;;;;;;;7.75;7.75;;;;;5.55;70.07;102127.13;6271313;22;46493;-75
2023/01/31 04:59:36;;;;;;;;;8.25;8.00;;;;;5.58;70.53;102139.16;6270750;22;45577;-78
2023/01/31 05:02:01;;;;;;;;;9.50;9.00;;;;;5.55;70.22;102134.91;6243719;22;45600;-77
2023/01/31 05:04:27;;;;;;;;;12.25;7.00;;;;;5.56;70.26;102127.97;6271218;22;46255;-74
2023/01/31 05:06:52;;;;;;;;;11.75;8.00;;;;;5.55;70.58;102140.13;6271002;22;45981;-73
2023/01/31 05:09:17;;;;;;;;;9.25;8.50;;;;;5.46;70.08;102114.34;6271518;22;45522;-78
2023/01/31 05:11:43;;;;;;;;;8.75;8.75;;;;;5.48;70.35;102121.22;6271358;22;45586;-76
2023/01/31 05:14:09;;;;;;;;;7.75;5.75;;;;;5.50;70.69;102123.78;6271299;22;46160;-76
2023/01/31 05:16:34;;;;;;;;;7.50;7.00;;;;;5.46;70.61;102122.13;6270282;22;46265;-74
2023/01/31 05:19:00;;;;;;;;;10.50;7.75;;;;;5.45;70.28;102110.88;6270599;22;45530;-75
2023/01/31 05:24:48;;;;;;;;;8.25;6.00;;;;;5.48;70.84;102116.03;6270819;22;46020;-77
2023/01/31 05:27:14;;;;;;;;;9.75;7.50;;;;;5.46;70.59;102106.53;6270574;22;45986;-76
2023/01/31 05:29:41;;;;;;;;;5.50;5.50;;;;;5.48;70.87;102115.16;6271378;22;45794;-78
2023/01/31 05:32:07;;;;;;;;;8.25;6.50;;;;;5.49;70.62;102124.66;6243105;22;45741;-77
2023/01/31 05:34:32;;;;;;;;;5.75;4.75;;;;;5.46;70.90;102111.75;6271394;22;46340;-74
2023/01/31 05:40:20;;;;;;;;;7.50;6.00;;;;;5.38;70.64;102109.34;6264849;22;45936;-74
2023/01/31 05:42:53;;;;;;;;;5.75;5.00;;;;;5.39;70.77;102118.84;6270466;22;45472;-75
2023/01/31 05:45:19;;;;;;;;;5.00;4.25;;;;;5.40;71.19;102132.69;6271149;22;45696;-74
2023/01/31 05:47:48;;;;;;;;;7.25;5.00;;;;;5.33;71.31;102118.16;6270128;22;47260;-78
2023/01/31 05:50:13;;;;;;;;;11.25;8.00;;;;;5.38;71.20;102131.88;6270587;22;45534;-78
2023/01/31 05:52:39;;;;;;;;;8.75;8.00;;;;;5.34;71.15;102123.31;6270885;22;45649;-76
2023/01/31 05:55:06;;;;;;;;;10.50;8.00;;;;;5.42;71.39;102123.97;6270819;22;46166;-74
2023/01/31 05:57:32;;;;;;;;;8.00;7.00;;;;;5.39;71.14;102124.06;6270009;22;47380;-76
2023/01/31 05:59:57;;;;;;;;;9.00;8.25;;;;;5.30;71.08;102108.69;6243646;22;45610;-77
2023/01/31 06:02:23;;;;;;;;;9.25;7.75;;;;;5.42;71.12;102128.31;6272171;22;45491;-77
2023/01/31 06:04:48;;;;;;;;;8.50;8.50;;;;;5.41;70.95;102129.19;6244410;22;47166;-77
2023/01/31 06:10:35;;;;;;;;;10.25;8.75;;;;;5.55;70.91;102129.72;6272081;22;45501;-76
2023/01/31 06:13:01;;;;;;;;;10.50;9.00;;;;;5.62;70.83;102130.38;6272034;22;45577;-78
2023/01/31 06:15:26;;;;;;;;;11.00;8.25;;;;;5.60;70.96;102111.41;6271286;22;46409;-75
2023/01/31 06:17:52;;;;;;;;;12.00;9.00;;;;;5.72;71.20;102124.06;6272237;22;45548;-72
2023/01/31 06:20:18;;;;;;;;;9.00;8.25;;;;;5.74;70.71;102117.94;6271712;22;45487;-76
2023/01/31 06:22:43;;;;;;;;;8.25;6.00;;;;;5.77;70.98;102124.81;6271786;22;45545;-76
2023/01/31 06:25:09;;;;;;;;;8.75;5.00;;;;;5.83;70.54;102130.66;6272090;22;46470;-77
2023/01/31 06:27:35;;;;;;;;;4.25;4.00;;;;;5.84;70.53;102129.78;6272154;22;45710;-72
2023/01/31 06:30:00;;;;;;;;;9.25;6.75;;;;;5.87;70.57;102144.50;6270943;22;45561;-70
2023/01/31 06:32:26;;;;;;;;;4.00;4.00;;;;;5.85;70.57;102141.91;6271705;22;45681;-71
2023/01/31 06:34:51;;;;;;;;;6.25;4.25;;;;;5.80;70.76;102140.31;6271420;22;46157;-72
2023/01/31 06:40:38;;;;;;;;;6.50;5.00;;;;;5.94;70.88;102153.81;6270009;22;45711;-70
2023/01/31 06:43:03;;;;;;;;;7.75;5.25;;;;;5.95;70.18;102155.53;6272260;22;45527;-72
2023/01/31 06:45:29;;;;;;;;;7.75;5.75;;;;;6.00;70.67;102164.06;6271231;22;47382;-72
2023/01/31 06:47:54;;;;;;;;;6.25;5.00;;;;;6.06;70.48;102168.25;6271318;22;45674;-72
2023/01/31 06:50:19;;;;;;;;;9.25;7.00;;;;;6.06;70.16;102161.28;6272213;22;45640;-72
2023/01/31 06:56:08;;;;;;;;;4.00;4.00;;;;;6.16;70.31;102164.50;6271510;22;45978;-72
2023/01/31 06:58:33;;;;;;;;;62.75;50.25;;;;;6.20;70.29;102168.75;6244092;22;47278;-70
2023/01/31 07:01:12;;;;;;;;;16.75;14.50;;;;;6.22;69.93;102169.53;6271168;22;45958;-72
2023/01/31 07:03:38;;;;;;;;;8.50;8.00;;;;;6.24;70.00;102165.16;6271699;22;45470;-72
2023/01/31 07:06:05;;;;;;;;;5.00;5.00;;;;;6.26;69.83;102159.00;6270898;22;46243;-72
2023/01/31 07:08:31;;;;;;;;;11.00;10.75;;;;;6.27;69.64;102159.84;6271937;22;46019;-72
2023/01/31 07:10:57;;;;;;;;;5.75;5.00;;;;;6.26;69.98;102159.00;6243990;22;45660;-72
2023/01/31 07:13:22;;;;;;;;;8.00;4.50;;;;;6.29;69.63;102163.28;6271311;22;45636;-73
2023/01/31 07:15:48;;;;;;;;;5.75;5.00;;;;;6.26;69.81;102152.97;6271719;22;45806;-70
2023/01/31 07:18:14;;;;;;;;;5.25;4.75;;;;;6.32;69.59;102168.38;6272008;22;46169;-72
2023/01/31 07:20:40;;;;;;;;;5.00;4.25;;;;;6.34;69.69;102174.41;6272332;22;45530;-71
2023/01/31 07:26:26;;;;;;;;;8.00;6.00;;;;;6.21;69.58;102139.19;6271461;22;45552;-72
2023/01/31 07:28:52;;;;;;;;;6.00;6.00;;;;;6.32;69.59;102151.00;6271832;22;45484;-72
2023/01/31 07:31:17;;;;;;;;;5.50;4.00;;;;;6.39;69.21;102153.44;6271817;22;45540;-70
2023/01/31 07:33:43;;;;;;;;;6.50;4.00;;;;;6.42;69.11;102155.97;6269682;22;45547;-71
2023/01/31 07:36:12;;;;;;;;;5.25;4.25;;;;;6.33;68.90;102141.44;6270978;22;45547;-72
2023/01/31 07:38:39;;;;;;;;;7.75;5.00;;;;;6.43;69.07;102155.91;6271782;22;45627;-72
2023/01/31 07:41:05;;;;;;;;;5.00;4.00;;;;;6.49;69.12;102168.75;6270792;22;45756;-71
2023/01/31 07:43:31;;;;;;;;;5.25;4.50;;;;;6.50;68.83;102162.66;6271784;22;45431;-73
2023/01/31 07:45:57;;;;;;;;;6.00;2.00;;;;;6.41;68.93;102136.91;6271645;22;46441;-73
2023/01/31 07:48:23;;;;;;;;;5.00;4.00;;;;;6.52;68.74;102145.25;6271121;22;47144;-73
2023/01/31 07:50:57;;;;;;;;;4.25;4.00;;;;;6.56;69.14;102146.00;6271932;22;45535;-72
2023/01/31 07:56:46;;;;;;;;;4.75;3.00;;;;;6.63;68.74;102161.41;6271004;22;45631;-73
2023/01/31 07:59:12;;;;;;;;;4.00;2.00;;;;;6.68;68.50;102164.72;6270891;22;47326;-72
2023/01/31 08:04:22;;;;;;;;;4.00;3.00;;;;;6.66;68.62;102156.09;6270254;22;45707;-72
2023/01/31 08:06:50;;;;;;;;;5.25;5.00;;;;;6.69;68.57;102160.38;6270230;22;46385;-70
2023/01/31 08:09:16;;;;;;;;;5.25;4.00;;;;;6.72;68.33;102168.94;6243537;22;46974;-72
2023/01/31 08:11:41;;;;;;;;;5.00;4.00;;;;;6.73;68.73;102170.63;6270781;22;45480;-72
2023/01/31 08:14:08;;;;;;;;;5.75;4.00;;;;;6.71;68.37;102166.38;6271092;22;45531;-72
2023/01/31 08:16:35;;;;;;;;;4.75;4.00;;;;;6.71;68.50;102161.16;6271353;22;45702;-71
2023/01/31 08:19:01;;;;;;;;;3.50;3.50;;;;;6.77;68.57;102171.38;6270847;22;45769;-72
2023/01/31 08:21:26;;;;;;;;;7.50;4.50;;;;;6.79;68.33;102164.41;6271037;22;45777;-72
2023/01/31 08:27:13;;;;;;;;;5.00;4.50;;;;;6.81;68.08;102166.94;6271138;22;45471;-72
2023/01/31 08:29:39;;;;;;;;;7.50;4.00;;;;;6.82;68.13;102179.91;6271256;22;45976;-73
2023/01/31 08:32:04;;;;;;;;;5.00;2.00;;;;;6.82;68.12;102172.09;6271455;22;45617;-72
2023/01/31 08:34:30;;;;;;;;;5.50;4.50;;;;;6.88;68.05;102179.72;6270972;22;45614;-72
2023/01/31 08:36:55;;;;;;;;;6.00;3.50;;;;;6.89;68.07;102181.44;6243301;22;46750;-70
2023/01/31 08:39:20;;;;;;;;;5.00;4.00;;;;;6.88;67.91;102181.47;6270423;22;46908;-72
2023/01/31 08:41:46;;;;;;;;;4.75;4.75;;;;;6.85;67.80;102186.81;6270883;22;45623;-72
2023/01/31 08:44:12;;;;;;;;;5.75;4.50;;;;;6.85;67.88;102190.25;6271897;22;45567;-72
2023/01/31 08:46:39;;;;;;;;;4.00;4.00;;;;;6.87;67.96;102192.78;6271052;22;46145;-71
2023/01/31 08:49:06;;;;;;;;;6.75;4.00;;;;;6.86;67.95;102183.28;6271765;22;45440;-72
2023/01/31 08:51:31;;;;;;;;;4.25;2.00;;;;;6.89;67.72;102194.47;6271186;22;45413;-71
2023/01/31 08:57:19;;;;;;;;;5.75;4.00;;;;;6.97;67.82;102208.09;6271258;22;46011;-72
2023/01/31 08:59:45;;;;;;;;;4.25;4.00;;;;;7.00;67.52;102197.59;6270831;22;46223;-71
2023/01/31 09:02:12;;;;;;;;;4.50;4.00;;;;;7.04;67.07;102193.13;6271410;22;45550;-72
2023/01/31 09:04:38;;;;;;;;;4.00;2.75;;;;;7.06;67.65;102188.75;6271813;22;45747;-71
2023/01/31 09:07:03;;;;;;;;;4.50;4.50;;;;;7.08;67.41;102184.31;6271318;22;45420;-72
2023/01/31 09:12:50;;;;;;;;;1.00;1.00;;;;;7.17;67.40;102178.84;6271163;22;45812;-71
2023/01/31 09:15:16;;;;;;;;;3.50;3.50;;;;;7.25;67.80;102187.25;6243494;22;45500;-70
2023/01/31 09:17:42;;;;;;;;;5.25;4.00;;;;;7.31;67.14;102181.84;6269836;22;46621;-71
2023/01/31 09:20:09;;;;;;;;;5.25;5.00;;;;;7.36;67.26;102181.69;6242779;22;47229;-70
2023/01/31 09:22:35;;;;;;;;;6.00;5.00;;;;;7.42;67.30;102178.88;6270689;22;45512;-73
2023/01/31 09:25:00;;;;;;;;;3.50;3.50;;;;;7.51;66.94;102181.19;6243069;22;45569;-72
2023/01/31 09:27:28;;;;;;;;;5.75;3.50;;;;;7.51;67.02;102179.44;6270838;22;45495;-72
2023/01/31 09:29:53;;;;;;;;;6.25;5.00;;;;;7.62;66.81;102189.50;6271171;22;46103;-70
2023/01/31 09:32:20;;;;;;;;;5.00;3.50;;;;;7.69;66.51;102191.00;6270533;22;45585;-71
2023/01/31 09:34:47;;;;;;;;;1.00;1.00;;;;;7.59;66.57;102176.59;6271335;22;45459;-70
2023/01/31 09:37:14;;;;;;;;;4.50;3.50;;;;;7.77;66.40;102212.50;6271669;22;46335;-70
2023/01/31 09:43:16;;;;;;;;;1.50;1.50;;;;;7.76;65.83;102194.28;6266781;22;46529;-71
2023/01/31 09:45:44;;;;;;;;;11.00;5.75;;;;;7.76;65.93;102216.00;6272578;22;45479;-72
2023/01/31 09:48:17;;;;;;;;;5.75;4.50;;;;;7.74;65.60;102207.38;6272328;22;46488;-71
2023/01/31 09:50:48;;;;;;;;;9.75;3.75;;;;;7.73;65.79;102215.22;6271522;22;46197;-71
2023/01/31 09:53:20;;;;;;;;;6.25;5.00;;;;;7.71;65.42;102212.69;6271541;22;45666;-71
2023/01/31 09:56:24;;;;;;;;;4.00;4.00;;;;;7.70;65.58;102215.34;6271936;22;45711;-71
2023/01/31 09:58:55;;;;;;;;;9.50;5.00;;;;;7.66;65.42;102218.97;6147284;23;46596;-71
2023/01/31 10:01:38;;;;;;;;;6.00;3.25;;;;;7.67;65.44;102221.50;6147274;23;46813;-71
2023/01/31 10:04:16;;;;;;;;;5.25;4.50;;;;;7.69;65.37;102226.69;6147688;23;45888;-71
2023/01/31 10:06:51;;;;;;;;;8.00;4.75;;;;;7.64;65.39;102228.59;6148092;23;45732;-71
2023/01/31 10:09:41;;;;;;;;;6.25;5.00;;;;;7.61;65.47;102220.88;6147816;23;45604;-71
2023/01/31 10:12:39;;;;;;;;;5.75;2.75;;;;;7.59;65.47;102211.34;6146944;23;47418;-72
2023/01/31 10:15:18;;;;;;;;;6.00;5.75;;;;;7.57;65.32;102209.66;6147336;23;45567;-71
2023/01/31 10:17:49;;;;;;;;;5.50;4.00;;;;;7.56;65.55;102216.63;6147334;23;46357;-71
2023/01/31 10:20:42;;;;;;;;;5.50;4.50;;;;;7.56;65.54;102218.41;6147983;23;45802;-71
2023/01/31 10:26:32;;;;;;;;;5.50;4.00;;;;;7.55;65.52;102228.00;6088426;23;45878;-73
2023/01/31 10:29:05;;;;;;;;;8.50;6.00;;;;;7.53;65.62;102221.97;6103134;23;45545;-72
2023/01/31 10:31:40;;;;;;;;;5.00;3.25;;;;;7.57;65.61;102220.97;6149957;23;47216;-72
2023/01/31 10:34:16;;;;;;;;;8.25;6.50;;;;;7.64;65.60;102221.63;6149584;23;46171;-73
2023/01/31 10:36:48;;;;;;;;;10.25;6.00;;;;;7.69;65.62;102224.06;6148531;23;45520;-72
2023/01/31 10:42:37;;;;;;;;;7.25;5.25;;;;;7.77;65.31;102204.66;6147181;23;45557;-73
2023/01/31 10:45:03;;;;;;;;;8.00;6.00;;;;;7.79;65.23;102201.97;6146968;23;46121;-72
2023/01/31 10:47:38;;;;;;;;;7.33;6.33;;;;;7.82;65.34;102205.38;6146987;23;45494;-73
2023/01/31 10:50:16;;;;;;;;;5.00;4.75;;;;;7.85;65.03;102196.56;6147406;23;45967;-72
2023/01/31 10:53:00;;;;;;;;;9.50;5.50;;;;;7.89;65.12;102208.59;6147085;22;46843;-72
2023/01/31 10:58:49;;;;;;;;;5.00;3.25;;;;;7.96;64.90;102199.66;6147794;23;45593;-73
2023/01/31 11:01:15;;;;;;;;;7.00;5.00;;;;;8.02;64.96;102202.91;6266306;22;45673;-71
2023/01/31 11:03:48;;;;;;;;;4.75;3.75;;;;;8.06;64.37;102189.75;6271815;22;46125;-73
2023/01/31 11:06:14;;;;;;;;;2.75;2.50;;;;;8.13;64.59;102186.88;6243655;22;47561;-72
2023/01/31 11:08:44;;;;;;;;;7.00;4.50;;;;;8.17;64.62;102185.84;6243918;22;45600;-73
2023/01/31 11:11:13;;;;;;;;;8.00;5.50;;;;;8.24;64.71;102179.50;6271370;22;45787;-71
2023/01/31 11:13:39;;;;;;;;;7.00;5.25;;;;;8.31;64.35;102174.97;6243773;22;48815;-72
2023/01/31 11:16:10;;;;;;;;;10.25;8.00;;;;;8.36;64.11;102170.41;6243801;22;47204;-73
2023/01/31 11:18:48;;;;;;;;;5.00;4.50;;;;;8.37;64.03;102166.88;6271431;22;45578;-74
2023/01/31 11:21:29;;;;;;;;;5.25;5.00;;;;;8.40;64.15;102170.25;6271404;22;45646;-72
2023/01/31 11:24:02;;;;;;;;;3.00;2.00;;;;;8.44;64.27;102168.34;6271225;22;46462;-72
2023/01/31 11:26:32;;;;;;;;;7.00;6.25;;;;;8.49;63.58;102162.97;6271175;22;46140;-72
2023/01/31 11:28:58;;;;;;;;;7.00;6.00;;;;;8.59;63.96;102169.53;6272104;22;45516;-72
2023/01/31 11:31:39;;;;;;;;;8.00;5.25;;;;;8.60;63.88;102155.56;6272030;22;45574;-71
2023/01/31 11:34:18;;;;;;;;;5.25;3.50;;;;;8.64;63.68;102158.00;6270813;22;47109;-74
2023/01/31 11:36:47;;;;;;;;;7.25;5.00;;;;;8.66;63.28;102156.19;6271547;22;46525;-71
2023/01/31 11:39:37;;;;;;;;;10.00;5.00;;;;;8.66;63.49;102142.28;6271706;22;45813;-71
2023/01/31 11:42:14;;;;;;;;;7.00;6.00;;;;;8.69;63.36;102135.16;6271665;22;45573;-71
2023/01/31 11:45:28;;;;;;;;;7.00;5.00;;;;;8.75;63.27;102137.53;6270934;22;47078;-72
2023/01/31 11:48:04;;;;;;;;;7.00;6.00;;;;;8.82;63.30;102136.41;6146405;23;46560;-72
2023/01/31 11:50:38;;;;;;;;;6.75;6.00;;;;;8.84;63.27;102129.38;6147038;23;45620;-72
2023/01/31 11:53:25;;;;;;;;;7.00;7.00;;;;;8.87;63.11;102119.69;6147650;23;45569;-71
2023/01/31 11:55:54;;;;;;;;;6.50;5.75;;;;;8.95;62.81;102121.09;6145955;23;46295;-75
2023/01/31 11:58:35;;;;;;;;;7.00;6.00;;;;;8.99;62.94;102117.44;6146610;23;46284;-72
2023/01/31 12:01:05;;;;;;;;;5.75;5.75;;;;;9.02;62.90;102119.06;6147433;23;45756;-72
2023/01/31 12:03:32;;;;;;;;;5.50;5.00;;;;;9.09;62.96;102118.78;6146611;23;45612;-74
2023/01/31 12:06:03;;;;;;;;;4.00;2.00;;;;;9.16;62.85;102120.22;6146228;23;46370;-72
2023/01/31 12:08:39;;;;;;;;;6.50;6.00;;;;;9.24;62.60;102125.13;6146236;23;46783;-71
2023/01/31 12:11:28;;;;;;;;;6.00;4.50;;;;;9.28;62.62;102124.94;6146996;23;45672;-72
2023/01/31 12:14:01;;;;;;;;;7.75;4.50;;;;;9.34;62.41;102118.59;6146971;23;45485;-74
2023/01/31 12:16:29;;;;;;;;;5.25;3.50;;;;;9.38;62.28;102120.19;6146795;23;46273;-74
2023/01/31 12:19:13;;;;;;;;;8.00;6.00;;;;;9.41;62.09;102119.19;6146783;23;46248;-74
2023/01/31 12:21:57;;;;;;;;;7.00;5.00;;;;;9.43;62.02;102106.91;6196589;22;45713;-73
2023/01/31 12:28:11;;;;;;;;;3.50;3.50;;;;;9.45;61.96;102102.44;6271521;22;45483;-74
2023/01/31 12:30:49;;;;;;;;;7.25;6.00;;;;;9.46;62.04;102098.94;6264579;22;45537;-73
2023/01/31 12:33:50;;;;;;;;;2.25;1.75;;;;;9.51;61.71;102095.19;6271302;22;45646;-74
2023/01/31 12:36:42;;;;;;;;;4.00;2.00;;;;;9.53;61.76;102082.91;6270924;22;45459;-74
2023/01/31 12:43:39;;;;;;;;;3.00;2.00;;;;;9.59;61.52;102072.19;6143442;23;46164;-76
2023/01/31 12:46:22;;;;;;;;;5.25;5.00;;;;;9.53;61.28;102076.81;6147382;23;45664;-77
2023/01/31 12:49:06;;;;;;;;;3.00;2.25;;;;;9.59;61.35;102082.66;6146961;23;45517;-73
2023/01/31 12:51:46;;;;;;;;;3.00;3.00;;;;;9.61;61.32;102057.25;6146637;23;45749;-74
2023/01/31 12:54:28;;;;;;;;;3.50;3.50;;;;;9.63;61.11;102057.19;6121651;23;47315;-75
2023/01/31 13:00:30;;;;;;;;;3.00;3.00;;;;;9.68;61.13;102061.31;6146918;23;45597;-74
2023/01/31 13:03:22;;;;;;;;;6.00;2.75;;;;;9.74;61.16;102054.09;6146048;23;46289;-76
2023/01/31 13:05:56;;;;;;;;;5.00;3.00;;;;;9.76;61.12;102055.75;6028934;23;45594;-76
2023/01/31 13:08:27;;;;;;;;;5.50;3.00;;;;;9.77;60.71;102035.66;6029505;23;45552;-77
2023/01/31 13:11:19;;;;;;;;;5.00;2.00;;;;;9.82;60.86;102039.78;6030221;23;45702;-75
2023/01/31 13:13:47;;;;;;;;;4.75;3.00;;;;;9.83;60.63;102048.44;6030968;23;46256;-75
2023/01/31 13:16:21;;;;;;;;;3.00;2.25;;;;;9.82;60.95;102029.31;6082430;23;46518;-74
2023/01/31 13:18:49;;;;;;;;;6.50;5.00;;;;;9.83;60.88;102028.38;6118081;23;45651;-75